GHALY12 GMMN-GMMN
Flight info
| Callsign | GHALY12 |
|---|---|
| Flight time | 0h 4m |
| Altitude | 4000 |
| Route | SLK |
| Aircraft | C152/L-SFG/C |
Departure
| Time | 2026-05-04 18:58 |
|---|---|
| Airport | Mohammed V International Airport (GMMN) |
Arrival
| Time | 2026-05-04 19:02 |
|---|---|
| Airport | Mohammed V International Airport (GMMN) |
| Time | Latitude | Longitude | Altitude | Speed | Heading |
|---|---|---|---|---|---|
| 2026-05-04 18:46 | 33.35812 | -7.56905 | 647 ft | 0 kts | 23° |
| 2026-05-04 18:54 | 33.35816 | -7.56904 | 647 ft | 5 kts | 8° |
| 2026-05-04 18:54 | 33.35836 | -7.57019 | 647 ft | 16 kts | 264° |
| 2026-05-04 18:55 | 33.35784 | -7.57245 | 647 ft | 46 kts | 256° |
| 2026-05-04 18:55 | 33.35685 | -7.57654 | 647 ft | 19 kts | 258° |
| 2026-05-04 18:55 | 33.35644 | -7.57798 | 647 ft | 17 kts | 249° |
| 2026-05-04 18:56 | 33.35616 | -7.57932 | 647 ft | 16 kts | 255° |
| 2026-05-04 18:56 | 33.35581 | -7.58060 | 646 ft | 16 kts | 249° |
| 2026-05-04 18:56 | 33.35549 | -7.58186 | 645 ft | 15 kts | 255° |
| 2026-05-04 18:56 | 33.35527 | -7.58277 | 642 ft | 13 kts | 254° |
| 2026-05-04 18:57 | 33.35563 | -7.58372 | 640 ft | 21 kts | 342° |
| 2026-05-04 18:57 | 33.35819 | -7.58468 | 692 ft | 48 kts | 350° |
| 2026-05-04 18:57 | 33.36130 | -7.58615 | 882 ft | 51 kts | 341° |
| 2026-05-04 18:57 | 33.36427 | -7.58808 | 1145 ft | 51 kts | 337° |
| 2026-05-04 18:58 | 33.36771 | -7.58935 | 1344 ft | 56 kts | 356° |
| 2026-05-04 18:58 | 33.37172 | -7.59060 | 1530 ft | 65 kts | 347° |
| 2026-05-04 18:58 | 33.37624 | -7.59225 | 1641 ft | 69 kts | 351° |
| 2026-05-04 18:58 | 33.38092 | -7.59437 | 1745 ft | 77 kts | 326° |
| 2026-05-04 18:59 | 33.38202 | -7.60095 | 1815 ft | 101 kts | 251° |
| 2026-05-04 18:59 | 33.37562 | -7.60592 | 1669 ft | 122 kts | 184° |
| 2026-05-04 18:59 | 33.36714 | -7.60478 | 1570 ft | 122 kts | 162° |
| 2026-05-04 18:59 | 33.35895 | -7.60287 | 1550 ft | 116 kts | 165° |
| 2026-05-04 19:00 | 33.35136 | -7.60115 | 1581 ft | 105 kts | 166° |
| 2026-05-04 19:00 | 33.34520 | -7.59900 | 1453 ft | 85 kts | 136° |
| 2026-05-04 19:00 | 33.34123 | -7.59405 | 1340 ft | 76 kts | 112° |
| 2026-05-04 19:00 | 33.34084 | -7.58861 | 1318 ft | 62 kts | 61° |
| 2026-05-04 19:01 | 33.34289 | -7.58403 | 1150 ft | 69 kts | 43° |
| 2026-05-04 19:01 | 33.34678 | -7.58170 | 952 ft | 58 kts | 7° |
| 2026-05-04 19:01 | 33.35087 | -7.58259 | 826 ft | 66 kts | 320° |
| 2026-05-04 19:01 | 33.35369 | -7.58727 | 682 ft | 60 kts | 347° |
| 2026-05-04 19:02 | 33.35695 | -7.58853 | 645 ft | 45 kts | 347° |
| 2026-05-04 19:02 | 33.35993 | -7.58970 | 754 ft | 54 kts | 343° |
| 2026-05-04 19:02 | 33.36484 | -7.59138 | 653 ft | 84 kts | 347° |
| 2026-05-04 19:02 | 33.37072 | -7.59354 | 651 ft | 91 kts | 345° |
| 2026-05-04 19:03 | 33.37505 | -7.59509 | 1019 ft | 64 kts | 346° |
| 2026-05-04 19:03 | 33.37919 | -7.59770 | 1236 ft | 74 kts | 307° |
| 2026-05-04 19:03 | 33.37573 | -7.60317 | 1280 ft | 116 kts | 187° |
| 2026-05-04 19:03 | 33.36774 | -7.60057 | 1160 ft | 109 kts | 155° |
| 2026-05-04 19:04 | 33.36147 | -7.59827 | 1120 ft | 83 kts | 157° |
| 2026-05-04 19:04 | 33.35554 | -7.59671 | 1101 ft | 92 kts | 163° |
| 2026-05-04 19:04 | 33.34985 | -7.59392 | 1031 ft | 88 kts | 132° |
| 2026-05-04 19:04 | 33.34660 | -7.58867 | 948 ft | 66 kts | 75° |
| 2026-05-04 19:05 | 33.34953 | -7.58594 | 797 ft | 62 kts | 359° |
| 2026-05-04 19:05 | 33.35347 | -7.58736 | 647 ft | 46 kts | 353° |
| 2026-05-04 19:05 | 33.35446 | -7.58625 | 646 ft | 15 kts | 79° |
| 2026-05-04 19:05 | 33.35462 | -7.58537 | 646 ft | 6 kts | 77° |
| 2026-05-04 19:06 | 33.35491 | -7.58450 | 643 ft | 15 kts | 73° |
| 2026-05-04 19:06 | 33.35512 | -7.58329 | 641 ft | 14 kts | 69° |
| 2026-05-04 19:06 | 33.35536 | -7.58235 | 644 ft | 9 kts | 71° |
| 2026-05-04 19:06 | 33.35549 | -7.58175 | 645 ft | 6 kts | 75° |
| 2026-05-04 19:07 | 33.35559 | -7.58133 | 646 ft | 4 kts | 75° |
| 2026-05-04 19:07 | 33.35567 | -7.58102 | 646 ft | 6 kts | 74° |
| 2026-05-04 19:07 | 33.35622 | -7.57890 | 647 ft | 44 kts | 69° |
| 2026-05-04 19:07 | 33.35713 | -7.57481 | 665 ft | 54 kts | 56° |
| 2026-05-04 19:08 | 33.35785 | -7.57086 | 647 ft | 34 kts | 106° |
| 2026-05-04 19:08 | 33.35701 | -7.57085 | 647 ft | 10 kts | 295° |
| 2026-05-04 19:08 | 33.35734 | -7.57076 | 647 ft | 2 kts | 4° |